createdAt,value
2018-04-17T00:00:35.179Z,52.70
2018-04-17T00:03:01.574Z,52.74
2018-04-17T00:05:27.795Z,52.74
2018-04-17T00:07:54.381Z,52.86
2018-04-17T00:10:20.684Z,52.95
2018-04-17T00:12:46.857Z,53.17
2018-04-17T00:15:13.274Z,53.19
2018-04-17T00:17:39.518Z,53.28
2018-04-17T00:20:05.753Z,53.35
2018-04-17T00:22:32.162Z,53.39
2018-04-17T00:24:58.393Z,53.49
2018-04-17T00:27:24.628Z,53.49
2018-04-17T00:29:50.975Z,53.61
2018-04-17T00:32:17.221Z,53.75
2018-04-17T00:34:43.537Z,53.78
2018-04-17T00:37:09.723Z,53.86
2018-04-17T00:39:35.966Z,53.90
2018-04-17T00:42:02.498Z,53.95
2018-04-17T00:44:29.195Z,54.02
2018-04-17T00:46:55.405Z,54.10
2018-04-17T00:49:21.640Z,54.13
2018-04-17T00:51:48.106Z,54.04
2018-04-17T00:54:14.387Z,54.06
2018-04-17T00:56:41.097Z,54.07
2018-04-17T00:59:07.293Z,54.10
2018-04-17T01:01:33.474Z,54.11
2018-04-17T01:03:59.955Z,54.13
2018-04-17T01:06:26.161Z,54.17
2018-04-17T01:08:52.367Z,54.21
2018-04-17T01:11:18.605Z,54.47
2018-04-17T01:13:44.900Z,54.42
2018-04-17T01:16:11.125Z,54.28
2018-04-17T01:18:37.354Z,54.13
2018-04-17T01:21:03.601Z,54.45
2018-04-17T01:23:29.781Z,54.47
2018-04-17T01:25:55.962Z,54.42
2018-04-17T01:28:22.196Z,54.52
2018-04-17T01:30:48.445Z,54.61
2018-04-17T01:33:15.045Z,54.61
2018-04-17T01:35:41.286Z,54.64
2018-04-17T01:38:07.515Z,54.66
2018-04-17T01:40:34.024Z,54.58
2018-04-17T01:43:00.270Z,54.79
2018-04-17T01:45:26.785Z,54.80
2018-04-17T01:47:53.059Z,54.81
2018-04-17T01:50:19.440Z,55.01
2018-04-17T01:52:45.675Z,55.00
2018-04-17T01:55:11.832Z,55.25
2018-04-17T01:57:38.052Z,55.26
2018-04-17T02:00:04.300Z,55.29
2018-04-17T02:02:30.578Z,55.22
2018-04-17T02:04:56.753Z,55.32
2018-04-17T02:07:23.023Z,55.25
2018-04-17T02:09:49.274Z,55.36
2018-04-17T02:12:15.505Z,55.39
2018-04-17T02:14:42.106Z,55.40
2018-04-17T02:17:08.376Z,55.38
2018-04-17T02:19:34.924Z,55.38
2018-04-17T02:22:01.827Z,55.34
2018-04-17T02:24:28.055Z,55.37
2018-04-17T02:26:54.221Z,55.31
2018-04-17T02:29:21.150Z,55.33
2018-04-17T02:31:48.284Z,55.21
2018-04-17T02:34:14.457Z,55.19
2018-04-17T02:36:40.653Z,55.29
2018-04-17T02:39:06.983Z,55.22
2018-04-17T02:41:33.176Z,55.13
2018-04-17T02:43:59.461Z,55.07
2018-04-17T02:46:25.990Z,55.11
2018-04-17T02:48:52.170Z,55.15
2018-04-17T02:51:18.382Z,55.21
2018-04-17T02:53:44.881Z,55.27
2018-04-17T02:56:11.402Z,55.35
2018-04-17T02:58:37.718Z,55.35
2018-04-17T03:01:03.891Z,55.35
2018-04-17T03:03:30.129Z,55.30
2018-04-17T03:05:56.721Z,55.47
2018-04-17T03:08:23.000Z,55.54
2018-04-17T03:10:49.210Z,55.49
2018-04-17T03:13:15.434Z,55.55
2018-04-17T03:15:41.671Z,55.54
2018-04-17T03:18:07.925Z,55.59
2018-04-17T03:20:34.466Z,55.57
2018-04-17T03:23:00.703Z,55.64
2018-04-17T03:25:26.885Z,55.67
2018-04-17T03:27:53.448Z,55.86
2018-04-17T03:30:19.712Z,55.76
2018-04-17T03:32:45.968Z,55.62
2018-04-17T03:35:12.259Z,55.50
2018-04-17T03:37:38.437Z,55.19
2018-04-17T03:40:04.610Z,54.85
2018-04-17T03:42:30.832Z,54.57
2018-04-17T03:44:57.107Z,54.50
2018-04-17T03:47:23.342Z,54.43
2018-04-17T03:49:50.014Z,54.35
2018-04-17T03:52:16.258Z,54.27
2018-04-17T03:54:42.450Z,54.14
2018-04-17T03:57:08.653Z,54.01
2018-04-17T03:59:34.978Z,54.16
2018-04-17T04:02:01.196Z,54.48
2018-04-17T04:04:27.391Z,54.59
2018-04-17T04:06:53.680Z,54.54
2018-04-17T04:09:19.845Z,54.53
2018-04-17T04:11:46.179Z,54.53
2018-04-17T04:14:12.421Z,54.47
2018-04-17T04:16:51.213Z,54.37
2018-04-17T04:19:29.763Z,54.37
2018-04-17T04:22:08.354Z,54.38
2018-04-17T04:24:46.712Z,54.47
2018-04-17T04:27:13.573Z,54.49
2018-04-17T04:29:39.805Z,54.46
2018-04-17T04:32:06.024Z,54.54
2018-04-17T04:34:32.320Z,54.46
2018-04-17T04:36:58.768Z,54.38
2018-04-17T04:39:25.058Z,54.35
2018-04-17T04:41:51.370Z,54.32
2018-04-17T04:44:17.973Z,54.13
2018-04-17T04:46:44.165Z,53.83
2018-04-17T04:49:10.418Z,53.58
2018-04-17T04:51:36.710Z,53.37
2018-04-17T04:54:02.885Z,53.21
2018-04-17T04:56:29.223Z,53.06
2018-04-17T04:58:55.400Z,52.93
2018-04-17T05:01:21.581Z,52.76
2018-04-17T05:03:47.855Z,52.63
2018-04-17T05:06:14.098Z,54.29
2018-04-17T05:08:40.761Z,55.15
2018-04-17T05:11:07.036Z,54.56
2018-04-17T05:13:33.228Z,54.44
2018-04-17T05:15:59.457Z,54.38
2018-04-17T05:18:25.696Z,54.17
2018-04-17T05:20:52.029Z,53.97
2018-04-17T05:23:18.384Z,53.99
2018-04-17T05:25:44.559Z,53.82
2018-04-17T05:28:10.756Z,53.79
2018-04-17T05:30:37.380Z,53.74
2018-04-17T05:33:03.861Z,53.66
2018-04-17T05:35:30.057Z,53.56
2018-04-17T05:37:56.787Z,53.64
2018-04-17T05:40:22.978Z,53.59
2018-04-17T05:42:49.268Z,53.57
2018-04-17T05:45:15.607Z,53.55
2018-04-17T05:47:41.834Z,53.64
2018-04-17T05:50:08.150Z,53.67
2018-04-17T05:52:34.391Z,53.74
2018-04-17T05:55:00.582Z,53.67
2018-04-17T05:57:26.847Z,53.66
2018-04-17T05:59:53.566Z,53.56
2018-04-17T06:02:19.801Z,53.59
2018-04-17T06:04:46.235Z,53.61
2018-04-17T06:07:12.581Z,53.48
2018-04-17T06:09:38.828Z,53.38
2018-04-17T06:12:05.190Z,53.33
2018-04-17T06:14:31.435Z,53.22
2018-04-17T06:16:57.627Z,52.97
2018-04-17T06:19:23.859Z,53.01
2018-04-17T06:21:50.082Z,53.04
2018-04-17T06:24:16.265Z,53.10
2018-04-17T06:26:42.625Z,52.77
2018-04-17T06:29:09.071Z,52.34
2018-04-17T06:31:35.322Z,52.32
2018-04-17T06:34:01.634Z,52.32
2018-04-17T06:36:27.833Z,52.35
2018-04-17T06:38:54.149Z,52.30
2018-04-17T06:41:20.545Z,52.21
2018-04-17T06:43:46.816Z,52.23
2018-04-17T06:46:13.141Z,52.20
2018-04-17T06:48:39.374Z,52.11
2018-04-17T06:51:05.693Z,51.99
2018-04-17T06:53:31.966Z,51.91
2018-04-17T06:55:58.194Z,51.83
2018-04-17T06:58:24.440Z,51.76
2018-04-17T07:00:50.709Z,51.71
2018-04-17T07:03:16.884Z,51.66
2018-04-17T07:05:43.113Z,51.61
2018-04-17T07:08:09.369Z,51.56
2018-04-17T07:10:35.621Z,51.48
2018-04-17T07:13:01.883Z,51.44
2018-04-17T07:15:28.064Z,51.36
2018-04-17T07:17:54.321Z,51.35
2018-04-17T07:20:20.567Z,51.33
2018-04-17T07:22:46.778Z,51.30
2018-04-17T07:25:12.999Z,51.27
2018-04-17T07:27:39.560Z,51.21
2018-04-17T07:30:05.774Z,51.08
2018-04-17T07:32:31.980Z,51.02
2018-04-17T07:34:58.165Z,50.89
2018-04-17T07:37:24.411Z,50.83
2018-04-17T07:39:51.457Z,50.85
2018-04-17T07:42:18.206Z,50.87
2018-04-17T07:44:44.495Z,50.83
2018-04-17T07:47:20.723Z,50.75
2018-04-17T07:49:46.952Z,50.69
2018-04-17T07:52:13.267Z,50.67
2018-04-17T07:54:39.546Z,50.67
2018-04-17T07:57:06.065Z,50.64
2018-04-17T07:59:32.292Z,50.60
2018-04-17T08:01:58.564Z,50.53
2018-04-17T08:04:24.828Z,50.43
2018-04-17T08:06:51.009Z,50.35
2018-04-17T08:09:17.332Z,50.29
2018-04-17T08:11:43.603Z,50.29
2018-04-17T08:14:09.925Z,50.12
2018-04-17T08:16:36.123Z,49.91
2018-04-17T08:19:02.316Z,49.78
2018-04-17T08:21:28.782Z,49.69
2018-04-17T08:23:55.054Z,49.86
2018-04-17T08:26:21.337Z,49.80
2018-04-17T08:28:47.645Z,49.69
2018-04-17T08:31:13.838Z,49.71
2018-04-17T08:33:40.089Z,49.74
2018-04-17T08:36:06.398Z,49.63
2018-04-17T08:38:32.725Z,49.58
2018-04-17T08:40:58.911Z,49.55
2018-04-17T08:43:25.191Z,49.36
2018-04-17T08:45:51.489Z,49.38
2018-04-17T08:48:17.985Z,49.25
2018-04-17T08:50:44.222Z,49.17
2018-04-17T08:53:10.460Z,49.11
2018-04-17T08:55:36.725Z,49.16
2018-04-17T08:58:03.027Z,48.98
2018-04-17T09:00:29.211Z,49.17
2018-04-17T09:02:55.544Z,48.96
2018-04-17T09:05:21.725Z,49.01
2018-04-17T09:07:48.141Z,48.83
2018-04-17T09:10:14.406Z,48.90
2018-04-17T09:12:40.986Z,48.82
2018-04-17T09:15:07.317Z,48.79
2018-04-17T09:17:33.570Z,48.71
2018-04-17T09:19:59.840Z,48.62
2018-04-17T09:22:26.220Z,48.55
2018-04-17T09:24:52.422Z,48.46
2018-04-17T09:27:18.966Z,48.38
2018-04-17T09:29:45.157Z,48.22
2018-04-17T09:32:11.354Z,48.18
2018-04-17T09:34:37.957Z,48.09
2018-04-17T09:37:04.178Z,48.11
2018-04-17T09:39:30.494Z,48.12
2018-04-17T09:41:57.067Z,48.01
2018-04-17T09:44:23.324Z,48.05
2018-04-17T09:46:49.550Z,48.04
2018-04-17T09:49:15.729Z,47.89
2018-04-17T09:51:42.054Z,47.87
2018-04-17T09:54:08.287Z,47.77
2018-04-17T09:56:34.524Z,47.67
2018-04-17T09:59:01.055Z,47.67
2018-04-17T10:01:27.235Z,47.67
2018-04-17T10:03:53.881Z,47.65
2018-04-17T10:06:20.069Z,47.57
2018-04-17T10:08:46.309Z,47.51
2018-04-17T10:11:12.545Z,47.42
2018-04-17T10:13:38.837Z,47.48
2018-04-17T10:16:05.055Z,47.42
2018-04-17T10:18:31.253Z,47.34
2018-04-17T10:20:57.554Z,47.29
2018-04-17T10:23:23.823Z,47.14
2018-04-17T10:25:50.059Z,47.17
2018-04-17T10:28:16.259Z,47.13
2018-04-17T10:30:42.602Z,47.45
2018-04-17T10:33:11.807Z,47.51
2018-04-17T10:35:38.036Z,47.64
2018-04-17T10:38:04.370Z,47.22
2018-04-17T10:40:30.669Z,47.01
2018-04-17T10:42:56.848Z,46.80
2018-04-17T10:45:23.059Z,47.15
2018-04-17T10:47:49.291Z,47.27
2018-04-17T10:50:15.646Z,47.34
2018-04-17T10:52:41.850Z,47.41
2018-04-17T10:55:08.073Z,47.44
2018-04-17T10:57:34.331Z,47.33
2018-04-17T11:00:00.568Z,47.09
2018-04-17T11:02:26.803Z,46.83
2018-04-17T11:04:53.074Z,46.58
2018-04-17T11:07:19.281Z,46.43
2018-04-17T11:09:45.518Z,47.31
2018-04-17T11:12:11.809Z,47.56
2018-04-17T11:14:38.039Z,47.63
2018-04-17T11:17:04.317Z,47.34
2018-04-17T11:19:30.572Z,46.98
2018-04-17T11:21:56.989Z,46.59
2018-04-17T11:24:23.389Z,46.43
2018-04-17T11:26:49.763Z,46.60
2018-04-17T11:29:16.086Z,46.59
2018-04-17T11:31:42.364Z,46.48
2018-04-17T11:34:08.624Z,46.35
2018-04-17T11:36:34.849Z,46.31
2018-04-17T11:39:09.288Z,46.10
2018-04-17T11:41:35.517Z,46.01
2018-04-17T11:44:01.776Z,46.05
2018-04-17T11:46:28.145Z,46.18
2018-04-17T11:48:54.390Z,46.14
2018-04-17T11:51:20.869Z,46.11
2018-04-17T11:53:47.125Z,46.12
2018-04-17T11:56:13.635Z,46.43
2018-04-17T11:58:40.041Z,46.58
2018-04-17T12:01:06.225Z,46.57
2018-04-17T12:03:32.485Z,46.70
2018-04-17T12:05:59.205Z,46.67
2018-04-17T12:08:25.786Z,46.65
2018-04-17T12:10:52.497Z,46.75
2018-04-17T12:13:18.911Z,46.77
2018-04-17T12:15:45.140Z,46.75
2018-04-17T12:18:11.392Z,46.72
2018-04-17T12:20:37.573Z,46.74
2018-04-17T12:23:03.945Z,46.78
2018-04-17T12:25:30.129Z,46.52
2018-04-17T12:27:56.334Z,46.55
2018-04-17T12:30:22.554Z,46.55
2018-04-17T12:32:48.816Z,46.50
2018-04-17T12:35:14.997Z,46.25
2018-04-17T12:37:41.267Z,46.03
2018-04-17T12:40:07.455Z,45.77
2018-04-17T12:42:33.673Z,45.48
2018-04-17T12:44:59.968Z,45.18
2018-04-17T12:47:26.165Z,44.93
2018-04-17T12:49:52.345Z,44.94
2018-04-17T12:52:18.658Z,44.90
2018-04-17T12:54:44.906Z,45.15
2018-04-17T12:57:11.096Z,45.23
2018-04-17T12:59:37.456Z,45.30
2018-04-17T13:02:03.657Z,45.42
2018-04-17T13:04:30.293Z,45.52
2018-04-17T13:06:56.465Z,45.12
2018-04-17T13:09:22.621Z,44.96
2018-04-17T13:11:48.871Z,44.96
2018-04-17T13:14:15.049Z,44.92
2018-04-17T13:16:41.633Z,44.81
2018-04-17T13:19:07.776Z,44.72
2018-04-17T13:21:33.992Z,44.68
2018-04-17T13:24:00.208Z,44.63
2018-04-17T13:26:26.452Z,44.62
2018-04-17T13:28:52.644Z,44.67
2018-04-17T13:31:18.875Z,44.73
2018-04-17T13:33:45.068Z,44.79
2018-04-17T13:36:11.310Z,44.80
2018-04-17T13:38:37.937Z,44.85
2018-04-17T13:41:04.112Z,44.85
2018-04-17T13:43:30.349Z,44.88
2018-04-17T13:45:56.576Z,44.84
2018-04-17T13:48:22.906Z,44.79
2018-04-17T13:50:49.085Z,44.76
2018-04-17T13:53:15.304Z,44.59
2018-04-17T13:55:41.503Z,44.55
2018-04-17T13:58:07.696Z,44.44
2018-04-17T14:00:33.933Z,44.41
2018-04-17T14:03:00.089Z,44.40
2018-04-17T14:05:26.286Z,44.36
2018-04-17T14:07:52.824Z,44.32
2018-04-17T14:10:19.343Z,44.26
2018-04-17T14:12:45.986Z,44.13
2018-04-17T14:15:12.242Z,44.01
2018-04-17T14:17:38.419Z,43.84
2018-04-17T14:20:04.653Z,43.63
2018-04-17T14:22:30.909Z,43.44
2018-04-17T14:24:57.202Z,43.14
2018-04-17T14:27:23.447Z,42.84
2018-04-17T14:29:49.639Z,42.33
2018-04-17T14:32:15.880Z,41.67
2018-04-17T14:34:42.343Z,39.55
2018-04-17T14:37:08.886Z,37.64
2018-04-17T14:39:35.076Z,37.19
2018-04-17T14:42:01.317Z,35.99
2018-04-17T14:44:27.778Z,34.98
2018-04-17T14:46:54.317Z,34.74
2018-04-17T14:49:20.688Z,34.98
2018-04-17T14:51:46.864Z,34.98
2018-04-17T14:54:13.096Z,34.83
2018-04-17T14:56:39.293Z,34.57
2018-04-17T14:59:05.573Z,34.08
2018-04-17T15:01:32.079Z,33.66
2018-04-17T15:03:58.298Z,33.48
2018-04-17T15:06:24.756Z,33.56
2018-04-17T15:08:51.150Z,33.88
2018-04-17T15:11:17.320Z,34.40
2018-04-17T15:13:43.488Z,34.39
2018-04-17T15:16:09.807Z,35.06
2018-04-17T15:18:36.234Z,35.14
2018-04-17T15:21:02.486Z,35.36
2018-04-17T15:23:28.774Z,35.54
2018-04-17T15:25:54.980Z,35.85
2018-04-17T15:28:21.246Z,36.30
2018-04-17T15:30:47.470Z,36.74
2018-04-17T15:33:13.699Z,37.65
2018-04-17T15:35:40.217Z,37.86
2018-04-17T15:38:06.727Z,39.17
2018-04-17T15:40:32.996Z,40.04
2018-04-17T15:42:59.156Z,40.48
2018-04-17T15:45:25.313Z,40.95
2018-04-17T15:47:51.539Z,41.53
2018-04-17T15:50:17.741Z,42.07
2018-04-17T15:52:44.434Z,42.43
2018-04-17T15:55:11.044Z,42.61
2018-04-17T15:57:37.216Z,42.77
2018-04-17T16:00:03.709Z,42.71
2018-04-17T16:02:30.142Z,42.64
2018-04-17T16:04:56.503Z,42.40
2018-04-17T16:07:22.754Z,42.12
2018-04-17T16:09:49.346Z,41.41
2018-04-17T16:12:15.581Z,40.91
2018-04-17T16:14:41.749Z,40.52
2018-04-17T16:17:08.068Z,39.80
2018-04-17T16:19:34.344Z,39.59
2018-04-17T16:22:00.989Z,40.13
2018-04-17T16:24:27.264Z,40.76
2018-04-17T16:26:53.524Z,41.42
2018-04-17T16:29:19.776Z,41.66
2018-04-17T16:31:45.952Z,41.88
2018-04-17T16:34:12.375Z,42.39
2018-04-17T16:36:38.657Z,42.64
2018-04-17T16:39:05.190Z,42.88
2018-04-17T16:41:32.445Z,43.08
2018-04-17T16:43:58.771Z,43.19
2018-04-17T16:46:27.028Z,43.36
2018-04-17T16:48:53.201Z,43.58
2018-04-17T16:51:19.495Z,43.82
2018-04-17T16:53:45.674Z,44.01
2018-04-17T16:56:11.909Z,44.38
2018-04-17T16:58:38.304Z,44.63
2018-04-17T17:01:04.504Z,44.90
2018-04-17T17:03:31.080Z,44.99
2018-04-17T17:05:57.335Z,45.11
2018-04-17T17:08:23.559Z,45.22
2018-04-17T17:10:50.585Z,45.37
2018-04-17T17:13:16.835Z,45.68
2018-04-17T17:15:43.068Z,45.91
2018-04-17T17:18:09.787Z,45.91
2018-04-17T17:20:36.062Z,46.02
2018-04-17T17:23:02.327Z,46.16
2018-04-17T17:25:28.624Z,46.40
2018-04-17T17:27:57.071Z,46.40
2018-04-17T17:30:23.669Z,46.62
2018-04-17T17:32:49.828Z,46.57
2018-04-17T17:35:16.178Z,46.85
2018-04-17T17:37:42.434Z,46.99
2018-04-17T17:40:08.578Z,47.11
2018-04-17T17:42:34.791Z,47.21
2018-04-17T17:45:01.063Z,47.23
2018-04-17T17:47:27.503Z,47.36
2018-04-17T17:49:53.765Z,47.47
2018-04-17T17:52:26.951Z,47.55
2018-04-17T17:54:53.257Z,47.69
2018-04-17T17:57:19.753Z,47.86
2018-04-17T17:59:45.994Z,48.08
2018-04-17T18:02:12.202Z,48.20
2018-04-17T18:04:38.756Z,48.26
2018-04-17T18:07:04.987Z,48.35
2018-04-17T18:09:31.182Z,48.42
2018-04-17T18:11:58.224Z,48.52
2018-04-17T18:14:24.499Z,48.58
2018-04-17T18:16:50.678Z,48.73
2018-04-17T18:19:16.913Z,48.77
2018-04-17T18:21:43.189Z,48.95
2018-04-17T18:24:09.402Z,49.03
2018-04-17T18:26:35.618Z,49.08
2018-04-17T18:29:01.992Z,49.16
2018-04-17T18:31:28.456Z,49.20
2018-04-17T18:33:54.686Z,49.23
2018-04-17T18:36:20.991Z,49.29
2018-04-17T18:38:47.228Z,49.34
2018-04-17T18:41:13.776Z,49.42
2018-04-17T18:43:40.001Z,49.49
2018-04-17T18:46:06.695Z,49.62
2018-04-17T18:48:32.891Z,49.71
2018-04-17T18:50:59.252Z,49.71
2018-04-17T18:53:25.655Z,49.81
2018-04-17T18:55:51.885Z,49.89
2018-04-17T18:58:18.170Z,49.93
2018-04-17T19:00:44.418Z,49.97
2018-04-17T19:03:10.777Z,50.05
2018-04-17T19:05:36.945Z,50.14
2018-04-17T19:08:03.087Z,50.16
2018-04-17T19:10:29.574Z,50.11
2018-04-17T19:12:55.737Z,50.25
2018-04-17T19:15:21.940Z,50.34
2018-04-17T19:17:48.150Z,50.19
2018-04-17T19:20:14.693Z,50.33
2018-04-17T19:22:41.093Z,50.29
2018-04-17T19:25:07.347Z,50.36
2018-04-17T19:27:33.667Z,50.49
2018-04-17T19:29:59.889Z,50.62
2018-04-17T19:32:26.151Z,50.66
2018-04-17T19:34:52.410Z,50.67
2018-04-17T19:37:18.675Z,50.70
2018-04-17T19:39:45.082Z,50.85
2018-04-17T19:42:11.319Z,51.10
2018-04-17T19:44:37.573Z,51.13
2018-04-17T19:47:04.230Z,51.11
2018-04-17T19:49:31.024Z,51.08
2018-04-17T19:51:57.215Z,51.18
2018-04-17T19:54:23.510Z,51.20
2018-04-17T19:56:49.825Z,51.24
2018-04-17T19:59:15.996Z,51.29
2018-04-17T20:01:42.181Z,51.33
2018-04-17T20:04:08.452Z,51.33
2018-04-17T20:06:35.370Z,51.33
2018-04-17T20:09:02.093Z,51.42
2018-04-17T20:11:29.375Z,51.41
2018-04-17T20:13:56.330Z,51.48
2018-04-17T20:16:22.521Z,51.51
2018-04-17T20:18:48.794Z,51.59
2018-04-17T20:21:14.982Z,51.62
2018-04-17T20:23:41.393Z,51.68
2018-04-17T20:26:08.259Z,51.65
2018-04-17T20:28:36.349Z,51.67
2018-04-17T20:31:02.728Z,51.71
2018-04-17T20:33:29.243Z,51.72
2018-04-17T20:35:56.463Z,51.78
2018-04-17T20:38:22.703Z,51.84
2018-04-17T20:40:49.022Z,51.84
2018-04-17T20:43:15.583Z,51.84
2018-04-17T20:45:41.756Z,51.84
2018-04-17T20:48:08.006Z,51.74
2018-04-17T20:50:34.311Z,51.80
2018-04-17T20:53:01.161Z,52.00
2018-04-17T20:55:27.385Z,51.87
2018-04-17T20:57:53.622Z,51.90
2018-04-17T21:00:19.980Z,51.89
2018-04-17T21:02:46.440Z,51.96
2018-04-17T21:05:12.766Z,51.97
2018-04-17T21:07:39.298Z,52.00
2018-04-17T21:10:05.535Z,52.07
2018-04-17T21:12:31.745Z,52.08
2018-04-17T21:14:58.054Z,52.14
2018-04-17T21:17:24.472Z,52.16
2018-04-17T21:19:50.795Z,52.18
2018-04-17T21:22:17.243Z,52.24
2018-04-17T21:24:43.988Z,52.24
2018-04-17T21:27:10.201Z,52.30
2018-04-17T21:29:36.463Z,52.41
2018-04-17T21:32:02.909Z,52.56
2018-04-17T21:34:29.564Z,52.56
2018-04-17T21:36:55.975Z,52.64
2018-04-17T21:39:22.331Z,52.78
2018-04-17T21:41:48.708Z,52.73
2018-04-17T21:44:15.101Z,52.82
2018-04-17T21:46:41.277Z,52.88
2018-04-17T21:49:07.699Z,52.95
2018-04-17T21:51:33.894Z,53.03
2018-04-17T21:54:00.068Z,53.09
2018-04-17T21:56:26.414Z,53.13
2018-04-17T21:58:52.931Z,53.17
2018-04-17T22:01:20.041Z,53.17
2018-04-17T22:03:46.362Z,53.41
2018-04-17T22:06:12.881Z,53.37
2018-04-17T22:08:39.053Z,53.37
2018-04-17T22:11:05.281Z,53.30
2018-04-17T22:13:32.040Z,53.39
2018-04-17T22:15:58.272Z,53.48
2018-04-17T22:18:24.563Z,53.49
2018-04-17T22:20:52.093Z,53.72
2018-04-17T22:23:18.391Z,53.72
2018-04-17T22:25:45.329Z,53.81
2018-04-17T22:28:11.689Z,53.88
2018-04-17T22:30:38.055Z,54.08
2018-04-17T22:33:04.290Z,54.02
2018-04-17T22:35:30.457Z,53.85
2018-04-17T22:37:56.766Z,53.99
2018-04-17T22:40:23.042Z,53.88
2018-04-17T22:42:49.628Z,53.86
2018-04-17T22:45:15.924Z,53.89
2018-04-17T22:47:42.153Z,53.85
2018-04-17T22:50:08.541Z,53.86
2018-04-17T22:52:34.834Z,53.87
2018-04-17T22:55:01.093Z,53.90
2018-04-17T22:57:27.621Z,53.91
2018-04-17T22:59:54.413Z,53.90
2018-04-17T23:02:20.646Z,53.96
2018-04-17T23:04:47.549Z,53.95
2018-04-17T23:07:13.996Z,54.00
2018-04-17T23:09:40.204Z,54.21
2018-04-17T23:12:06.790Z,54.42
2018-04-17T23:14:33.709Z,54.53
2018-04-17T23:17:00.322Z,54.42
2018-04-17T23:19:26.526Z,54.52
2018-04-17T23:21:52.736Z,54.51
2018-04-17T23:24:18.922Z,54.41
2018-04-17T23:26:45.131Z,54.49
2018-04-17T23:29:11.302Z,54.56
2018-04-17T23:31:37.857Z,54.62
2018-04-17T23:34:04.126Z,54.61
2018-04-17T23:36:30.298Z,54.63
2018-04-17T23:38:56.499Z,54.65
2018-04-17T23:41:22.669Z,54.75
2018-04-17T23:46:21.818Z,54.80
2018-04-17T23:48:47.984Z,54.87
2018-04-17T23:51:14.553Z,54.92
2018-04-17T23:53:40.953Z,54.98
2018-04-17T23:56:07.129Z,54.98
2018-04-17T23:58:33.366Z,55.05
